IGO7301 VOMM-VOMD
Flight info
| Callsign | IGO7301 |
|---|---|
| Flight time | 1h 5m |
| Altitude | 14000 |
| Route | TEGUT2A TEGUT R457 MDI |
| Aircraft | AT76/M-SDFGIRY/S |
Departure
| Time | 2026-05-06 06:59 |
|---|---|
| Airport | Chennai International Airport (VOMM) |
Arrival
| Time | 2026-05-06 08:04 |
|---|---|
| Airport | Madurai Airport (VOMD) |
| Time | Latitude | Longitude | Altitude | Speed | Heading |
|---|---|---|---|---|---|
| 2026-05-06 06:38 | 12.98368 | 80.15941 | 50 ft | 0 kts | 339° |
| 2026-05-06 06:54 | 12.98358 | 80.15945 | 46 ft | 2 kts | 339° |
| 2026-05-06 06:54 | 12.98342 | 80.15951 | 48 ft | 2 kts | 339° |
| 2026-05-06 06:54 | 12.98327 | 80.15957 | 48 ft | 2 kts | 338° |
| 2026-05-06 06:54 | 12.98313 | 80.15963 | 49 ft | 2 kts | 332° |
| 2026-05-06 06:55 | 12.98302 | 80.15973 | 46 ft | 1 kts | 257° |
| 2026-05-06 06:55 | 12.98302 | 80.15974 | 46 ft | 0 kts | 252° |
| 2026-05-06 06:56 | 12.98300 | 80.15966 | 48 ft | 4 kts | 252° |
| 2026-05-06 06:56 | 12.98291 | 80.15925 | 49 ft | 7 kts | 265° |
| 2026-05-06 06:57 | 12.98302 | 80.15860 | 48 ft | 11 kts | 287° |
| 2026-05-06 06:57 | 12.98329 | 80.15774 | 48 ft | 14 kts | 288° |
| 2026-05-06 06:57 | 12.98356 | 80.15673 | 50 ft | 15 kts | 284° |
| 2026-05-06 06:57 | 12.98383 | 80.15562 | 50 ft | 16 kts | 284° |
| 2026-05-06 06:58 | 12.98426 | 80.15461 | 48 ft | 15 kts | 319° |
| 2026-05-06 06:58 | 12.98484 | 80.15484 | 50 ft | 9 kts | 65° |
| 2026-05-06 06:58 | 12.98508 | 80.15544 | 48 ft | 21 kts | 68° |
| 2026-05-06 06:58 | 12.98636 | 80.15891 | 49 ft | 82 kts | 73° |
| 2026-05-06 06:59 | 12.98909 | 80.16587 | 60 ft | 126 kts | 65° |
| 2026-05-06 06:59 | 12.99393 | 80.17285 | 664 ft | 112 kts | 59° |
| 2026-05-06 06:59 | 12.99842 | 80.18048 | 917 ft | 136 kts | 68° |
| 2026-05-06 06:59 | 13.00188 | 80.18913 | 1548 ft | 132 kts | 76° |
| 2026-05-06 07:00 | 13.00523 | 80.19890 | 1827 ft | 154 kts | 72° |
| 2026-05-06 07:00 | 13.00902 | 80.20895 | 2416 ft | 149 kts | 71° |
| 2026-05-06 07:00 | 13.01249 | 80.21882 | 2968 ft | 146 kts | 74° |
| 2026-05-06 07:00 | 13.01552 | 80.22874 | 3479 ft | 144 kts | 75° |
| 2026-05-06 07:01 | 13.01570 | 80.23843 | 3928 ft | 140 kts | 117° |
| 2026-05-06 07:01 | 13.00738 | 80.24428 | 3926 ft | 164 kts | 173° |
| 2026-05-06 07:01 | 12.99582 | 80.24126 | 3925 ft | 183 kts | 204° |
| 2026-05-06 07:01 | 12.98411 | 80.23584 | 4227 ft | 185 kts | 205° |
| 2026-05-06 07:02 | 12.97246 | 80.23006 | 4555 ft | 187 kts | 204° |
| 2026-05-06 07:02 | 12.96038 | 80.22499 | 4859 ft | 188 kts | 199° |
| 2026-05-06 07:02 | 12.94783 | 80.22105 | 5168 ft | 189 kts | 193° |
| 2026-05-06 07:02 | 12.93487 | 80.21829 | 5473 ft | 191 kts | 188° |
| 2026-05-06 07:03 | 12.92171 | 80.21654 | 5777 ft | 192 kts | 185° |
| 2026-05-06 07:03 | 12.90836 | 80.21532 | 6055 ft | 193 kts | 183° |
| 2026-05-06 07:03 | 12.89491 | 80.21420 | 6336 ft | 195 kts | 183° |
| 2026-05-06 07:03 | 12.88134 | 80.21314 | 6598 ft | 196 kts | 182° |
| 2026-05-06 07:04 | 12.86764 | 80.21207 | 6863 ft | 198 kts | 183° |
| 2026-05-06 07:04 | 12.85428 | 80.20916 | 7085 ft | 201 kts | 209° |
| 2026-05-06 07:04 | 12.84358 | 80.19982 | 7333 ft | 203 kts | 223° |
| 2026-05-06 07:04 | 12.83323 | 80.18987 | 7614 ft | 204 kts | 222° |
| 2026-05-06 07:05 | 12.82258 | 80.18022 | 7874 ft | 205 kts | 219° |
| 2026-05-06 07:05 | 12.81135 | 80.17107 | 8129 ft | 207 kts | 216° |
| 2026-05-06 07:05 | 12.79964 | 80.16245 | 8393 ft | 208 kts | 214° |
| 2026-05-06 07:05 | 12.78774 | 80.15403 | 8672 ft | 208 kts | 214° |
| 2026-05-06 07:06 | 12.77567 | 80.14565 | 8932 ft | 210 kts | 213° |
| 2026-05-06 07:06 | 12.76354 | 80.13733 | 9178 ft | 211 kts | 213° |
| 2026-05-06 07:06 | 12.75137 | 80.12875 | 9435 ft | 212 kts | 214° |
| 2026-05-06 07:06 | 12.73918 | 80.12004 | 9681 ft | 214 kts | 214° |
| 2026-05-06 07:07 | 12.72698 | 80.11135 | 9902 ft | 215 kts | 214° |
| 2026-05-06 07:07 | 12.71469 | 80.10259 | 10129 ft | 215 kts | 214° |
| 2026-05-06 07:07 | 12.70243 | 80.09383 | 10370 ft | 215 kts | 214° |
| 2026-05-06 07:07 | 12.69020 | 80.08511 | 10606 ft | 216 kts | 214° |
| 2026-05-06 07:08 | 12.67927 | 80.07730 | 10817 ft | 215 kts | 214° |
| 2026-05-06 07:08 | 12.66695 | 80.06850 | 11039 ft | 216 kts | 214° |
| 2026-05-06 07:08 | 12.65460 | 80.05968 | 11258 ft | 217 kts | 214° |
| 2026-05-06 07:08 | 12.64221 | 80.05084 | 11486 ft | 217 kts | 214° |
| 2026-05-06 07:09 | 12.62979 | 80.04199 | 11708 ft | 217 kts | 214° |
| 2026-05-06 07:09 | 12.61732 | 80.03309 | 11935 ft | 218 kts | 214° |
| 2026-05-06 07:09 | 12.60497 | 80.02428 | 12138 ft | 219 kts | 214° |
| 2026-05-06 07:09 | 12.59247 | 80.01537 | 12359 ft | 219 kts | 214° |
| 2026-05-06 07:10 | 12.57994 | 80.00644 | 12575 ft | 219 kts | 214° |
| 2026-05-06 07:10 | 12.56734 | 79.99746 | 12780 ft | 220 kts | 214° |
| 2026-05-06 07:10 | 12.55474 | 79.98848 | 12984 ft | 221 kts | 214° |
| 2026-05-06 07:10 | 12.54210 | 79.97946 | 13188 ft | 221 kts | 214° |
| 2026-05-06 07:11 | 12.52957 | 79.97054 | 13381 ft | 221 kts | 214° |
| 2026-05-06 07:11 | 12.51689 | 79.96151 | 13570 ft | 222 kts | 214° |
| 2026-05-06 07:11 | 12.50419 | 79.95245 | 13725 ft | 224 kts | 214° |
| 2026-05-06 07:11 | 12.49123 | 79.94322 | 13785 ft | 229 kts | 214° |
| 2026-05-06 07:12 | 12.47793 | 79.93374 | 13797 ft | 236 kts | 214° |
| 2026-05-06 07:12 | 12.46434 | 79.92406 | 13797 ft | 242 kts | 214° |
| 2026-05-06 07:12 | 12.45052 | 79.91422 | 13805 ft | 246 kts | 214° |
| 2026-05-06 07:12 | 12.43632 | 79.90412 | 13796 ft | 250 kts | 214° |
| 2026-05-06 07:13 | 12.42194 | 79.89389 | 13804 ft | 253 kts | 214° |
| 2026-05-06 07:13 | 12.40738 | 79.88353 | 13806 ft | 255 kts | 214° |
| 2026-05-06 07:13 | 12.39295 | 79.87326 | 13805 ft | 257 kts | 214° |
| 2026-05-06 07:13 | 12.37823 | 79.86278 | 13807 ft | 258 kts | 214° |
| 2026-05-06 07:14 | 12.36344 | 79.85226 | 13806 ft | 259 kts | 214° |
| 2026-05-06 07:14 | 12.34853 | 79.84167 | 13809 ft | 260 kts | 215° |
| 2026-05-06 07:14 | 12.33364 | 79.83106 | 13805 ft | 261 kts | 214° |
| 2026-05-06 07:14 | 12.31871 | 79.82046 | 13805 ft | 261 kts | 214° |
| 2026-05-06 07:15 | 12.30377 | 79.80982 | 13804 ft | 262 kts | 214° |
| 2026-05-06 07:15 | 12.28882 | 79.79918 | 13805 ft | 262 kts | 214° |
| 2026-05-06 07:15 | 12.27384 | 79.78853 | 13804 ft | 262 kts | 214° |
| 2026-05-06 07:15 | 12.25891 | 79.77792 | 13805 ft | 262 kts | 214° |
| 2026-05-06 07:16 | 12.24390 | 79.76726 | 13808 ft | 262 kts | 214° |
| 2026-05-06 07:16 | 12.22904 | 79.75669 | 13810 ft | 261 kts | 214° |
| 2026-05-06 07:16 | 12.21434 | 79.74624 | 13808 ft | 260 kts | 214° |
| 2026-05-06 07:16 | 12.19949 | 79.73567 | 13808 ft | 260 kts | 215° |
| 2026-05-06 07:17 | 12.18458 | 79.72511 | 13810 ft | 259 kts | 214° |
| 2026-05-06 07:17 | 12.16977 | 79.71456 | 13815 ft | 259 kts | 214° |
| 2026-05-06 07:17 | 12.15496 | 79.70405 | 13812 ft | 259 kts | 215° |
| 2026-05-06 07:17 | 12.14030 | 79.69364 | 13816 ft | 259 kts | 214° |
| 2026-05-06 07:18 | 12.12552 | 79.68313 | 13820 ft | 259 kts | 215° |
| 2026-05-06 07:18 | 12.11070 | 79.67260 | 13822 ft | 258 kts | 215° |
| 2026-05-06 07:18 | 12.09594 | 79.66214 | 13823 ft | 258 kts | 215° |
| 2026-05-06 07:18 | 12.08121 | 79.65167 | 13825 ft | 258 kts | 215° |
| 2026-05-06 07:19 | 12.06647 | 79.64122 | 13829 ft | 258 kts | 215° |
| 2026-05-06 07:19 | 12.05173 | 79.63076 | 13824 ft | 258 kts | 215° |
| 2026-05-06 07:19 | 12.03713 | 79.62042 | 13825 ft | 258 kts | 215° |
| 2026-05-06 07:19 | 12.02234 | 79.60993 | 13832 ft | 258 kts | 215° |
| 2026-05-06 07:20 | 12.00772 | 79.59957 | 13831 ft | 258 kts | 215° |
| 2026-05-06 07:20 | 11.99302 | 79.58911 | 13825 ft | 258 kts | 215° |
| 2026-05-06 07:20 | 11.97816 | 79.57859 | 13826 ft | 258 kts | 215° |
| 2026-05-06 07:20 | 11.96336 | 79.56810 | 13826 ft | 258 kts | 215° |
| 2026-05-06 07:21 | 11.94857 | 79.55763 | 13822 ft | 258 kts | 215° |
| 2026-05-06 07:21 | 11.93379 | 79.54714 | 13824 ft | 259 kts | 215° |
| 2026-05-06 07:21 | 11.91918 | 79.53679 | 13818 ft | 259 kts | 215° |
| 2026-05-06 07:21 | 11.90438 | 79.52631 | 13819 ft | 259 kts | 215° |
| 2026-05-06 07:22 | 11.88955 | 79.51580 | 13821 ft | 258 kts | 215° |
| 2026-05-06 07:22 | 11.87480 | 79.50537 | 13823 ft | 258 kts | 215° |
| 2026-05-06 07:22 | 11.85998 | 79.49485 | 13821 ft | 258 kts | 215° |
| 2026-05-06 07:22 | 11.84520 | 79.48439 | 13821 ft | 258 kts | 215° |
| 2026-05-06 07:23 | 11.83043 | 79.47392 | 13817 ft | 258 kts | 215° |
| 2026-05-06 07:23 | 11.81585 | 79.46361 | 13819 ft | 258 kts | 215° |
| 2026-05-06 07:23 | 11.80103 | 79.45313 | 13816 ft | 258 kts | 215° |
| 2026-05-06 07:23 | 11.78625 | 79.44268 | 13823 ft | 258 kts | 215° |
| 2026-05-06 07:24 | 11.77147 | 79.43222 | 13819 ft | 258 kts | 215° |
| 2026-05-06 07:24 | 11.75683 | 79.42187 | 13817 ft | 258 kts | 215° |
| 2026-05-06 07:24 | 11.74206 | 79.41141 | 13818 ft | 258 kts | 215° |
| 2026-05-06 07:24 | 11.72730 | 79.40095 | 13817 ft | 258 kts | 215° |
| 2026-05-06 07:25 | 11.71252 | 79.39052 | 13816 ft | 258 kts | 215° |
| 2026-05-06 07:25 | 11.69771 | 79.38004 | 13814 ft | 258 kts | 215° |
| 2026-05-06 07:25 | 11.68296 | 79.36961 | 13818 ft | 258 kts | 215° |
| 2026-05-06 07:25 | 11.66836 | 79.35929 | 13816 ft | 257 kts | 215° |
| 2026-05-06 07:26 | 11.65368 | 79.34891 | 13819 ft | 257 kts | 215° |
| 2026-05-06 07:26 | 11.63894 | 79.33849 | 13818 ft | 258 kts | 215° |
| 2026-05-06 07:26 | 11.62413 | 79.32802 | 13814 ft | 258 kts | 215° |
| 2026-05-06 07:26 | 11.60937 | 79.31760 | 13820 ft | 258 kts | 215° |
| 2026-05-06 07:27 | 11.59462 | 79.30718 | 13818 ft | 258 kts | 215° |
| 2026-05-06 07:27 | 11.58003 | 79.29688 | 13814 ft | 257 kts | 215° |
| 2026-05-06 07:27 | 11.56530 | 79.28648 | 13820 ft | 257 kts | 215° |
| 2026-05-06 07:27 | 11.55060 | 79.27609 | 13816 ft | 257 kts | 215° |
| 2026-05-06 07:28 | 11.53590 | 79.26572 | 13816 ft | 257 kts | 215° |
| 2026-05-06 07:28 | 11.52117 | 79.25530 | 13817 ft | 257 kts | 215° |
| 2026-05-06 07:28 | 11.49179 | 79.23457 | 13820 ft | 257 kts | 215° |
| 2026-05-06 07:29 | 11.47701 | 79.22413 | 13813 ft | 258 kts | 215° |
| 2026-05-06 07:29 | 11.46225 | 79.21372 | 13810 ft | 257 kts | 215° |
| 2026-05-06 07:29 | 11.44753 | 79.20333 | 13815 ft | 257 kts | 215° |
| 2026-05-06 07:29 | 11.43295 | 79.19304 | 13811 ft | 257 kts | 215° |
| 2026-05-06 07:30 | 11.41818 | 79.18263 | 13808 ft | 257 kts | 215° |
| 2026-05-06 07:30 | 11.40339 | 79.17219 | 13812 ft | 258 kts | 215° |
| 2026-05-06 07:30 | 11.38863 | 79.16179 | 13808 ft | 258 kts | 215° |
| 2026-05-06 07:30 | 11.37388 | 79.15140 | 13808 ft | 257 kts | 215° |
| 2026-05-06 07:31 | 11.35916 | 79.14100 | 13810 ft | 257 kts | 215° |
| 2026-05-06 07:31 | 11.34457 | 79.13072 | 13811 ft | 257 kts | 215° |
| 2026-05-06 07:31 | 11.32986 | 79.12036 | 13813 ft | 257 kts | 215° |
| 2026-05-06 07:31 | 11.31520 | 79.11002 | 13810 ft | 257 kts | 215° |
| 2026-05-06 07:32 | 11.30046 | 79.09963 | 13813 ft | 257 kts | 215° |
| 2026-05-06 07:32 | 11.28571 | 79.08924 | 13814 ft | 257 kts | 215° |
| 2026-05-06 07:32 | 11.27117 | 79.07899 | 13814 ft | 256 kts | 215° |
| 2026-05-06 07:32 | 11.25649 | 79.06864 | 13811 ft | 256 kts | 215° |
| 2026-05-06 07:33 | 11.24182 | 79.05831 | 13811 ft | 256 kts | 215° |
| 2026-05-06 07:33 | 11.22715 | 79.04799 | 13813 ft | 256 kts | 215° |
| 2026-05-06 07:33 | 11.21249 | 79.03767 | 13811 ft | 256 kts | 215° |
| 2026-05-06 07:33 | 11.19789 | 79.02739 | 13810 ft | 256 kts | 215° |
| 2026-05-06 07:34 | 11.18326 | 79.01709 | 13813 ft | 255 kts | 215° |
| 2026-05-06 07:34 | 11.16866 | 79.00680 | 13810 ft | 255 kts | 215° |
| 2026-05-06 07:34 | 11.15402 | 78.99652 | 13812 ft | 255 kts | 215° |
| 2026-05-06 07:34 | 11.13941 | 78.98623 | 13812 ft | 255 kts | 215° |
| 2026-05-06 07:35 | 11.12476 | 78.97593 | 13812 ft | 255 kts | 215° |
| 2026-05-06 07:35 | 11.11038 | 78.96580 | 13809 ft | 255 kts | 215° |
| 2026-05-06 07:35 | 11.09576 | 78.95553 | 13801 ft | 255 kts | 215° |
| 2026-05-06 07:35 | 11.08113 | 78.94524 | 13799 ft | 255 kts | 215° |
| 2026-05-06 07:36 | 11.06659 | 78.93501 | 13801 ft | 255 kts | 215° |
| 2026-05-06 07:36 | 11.05201 | 78.92476 | 13797 ft | 255 kts | 215° |
| 2026-05-06 07:36 | 11.03736 | 78.91445 | 13798 ft | 255 kts | 215° |
| 2026-05-06 07:36 | 11.02280 | 78.90422 | 13800 ft | 255 kts | 215° |
| 2026-05-06 07:37 | 11.00821 | 78.89396 | 13799 ft | 254 kts | 215° |
| 2026-05-06 07:37 | 10.99363 | 78.88372 | 13799 ft | 254 kts | 215° |
| 2026-05-06 07:37 | 10.97908 | 78.87348 | 13798 ft | 254 kts | 215° |
| 2026-05-06 07:37 | 10.96457 | 78.86328 | 13798 ft | 254 kts | 215° |
| 2026-05-06 07:38 | 10.95002 | 78.85308 | 13798 ft | 254 kts | 215° |
| 2026-05-06 07:38 | 10.93542 | 78.84283 | 13801 ft | 254 kts | 215° |
| 2026-05-06 07:38 | 10.92088 | 78.83261 | 13800 ft | 254 kts | 215° |
| 2026-05-06 07:38 | 10.90652 | 78.82251 | 13800 ft | 254 kts | 215° |
| 2026-05-06 07:39 | 10.89197 | 78.81228 | 13801 ft | 254 kts | 215° |
| 2026-05-06 07:39 | 10.87741 | 78.80207 | 13802 ft | 254 kts | 215° |
| 2026-05-06 07:39 | 10.86287 | 78.79187 | 13803 ft | 254 kts | 216° |
| 2026-05-06 07:39 | 10.84832 | 78.78165 | 13804 ft | 254 kts | 215° |
| 2026-05-06 07:40 | 10.83372 | 78.77139 | 13800 ft | 254 kts | 215° |
| 2026-05-06 07:40 | 10.82410 | 78.76465 | 13801 ft | 254 kts | 215° |
| 2026-05-06 07:40 | 10.80955 | 78.75443 | 13803 ft | 254 kts | 216° |
| 2026-05-06 07:40 | 10.79499 | 78.74421 | 13804 ft | 254 kts | 215° |
| 2026-05-06 07:41 | 10.78034 | 78.73401 | 13803 ft | 254 kts | 215° |
| 2026-05-06 07:41 | 10.76583 | 78.72379 | 13802 ft | 252 kts | 217° |
| 2026-05-06 07:41 | 10.75294 | 78.71175 | 13802 ft | 252 kts | 227° |
| 2026-05-06 07:41 | 10.74122 | 78.69879 | 13800 ft | 252 kts | 229° |
| 2026-05-06 07:42 | 10.72936 | 78.68560 | 13804 ft | 252 kts | 228° |
| 2026-05-06 07:42 | 10.71719 | 78.67270 | 13800 ft | 253 kts | 226° |
| 2026-05-06 07:42 | 10.70476 | 78.66008 | 13802 ft | 252 kts | 225° |
| 2026-05-06 07:42 | 10.69227 | 78.64752 | 13801 ft | 252 kts | 225° |
| 2026-05-06 07:43 | 10.67974 | 78.63503 | 13800 ft | 252 kts | 225° |
| 2026-05-06 07:43 | 10.66735 | 78.62267 | 13802 ft | 252 kts | 225° |
| 2026-05-06 07:43 | 10.65480 | 78.61016 | 13802 ft | 252 kts | 226° |
| 2026-05-06 07:43 | 10.64238 | 78.59760 | 13804 ft | 252 kts | 226° |
| 2026-05-06 07:44 | 10.62999 | 78.58502 | 13802 ft | 251 kts | 226° |
| 2026-05-06 07:44 | 10.61763 | 78.57247 | 13805 ft | 251 kts | 226° |
| 2026-05-06 07:44 | 10.60525 | 78.55990 | 13807 ft | 251 kts | 226° |
| 2026-05-06 07:44 | 10.59287 | 78.54740 | 13806 ft | 251 kts | 225° |
| 2026-05-06 07:45 | 10.58052 | 78.53485 | 13807 ft | 251 kts | 226° |
| 2026-05-06 07:45 | 10.56817 | 78.52236 | 13810 ft | 251 kts | 225° |
| 2026-05-06 07:45 | 10.55580 | 78.50983 | 13810 ft | 251 kts | 226° |
| 2026-05-06 07:45 | 10.54345 | 78.49727 | 13805 ft | 250 kts | 226° |
| 2026-05-06 07:46 | 10.53109 | 78.48479 | 13810 ft | 252 kts | 226° |
| 2026-05-06 07:46 | 10.51872 | 78.47224 | 13810 ft | 252 kts | 225° |
| 2026-05-06 07:46 | 10.50644 | 78.45981 | 13812 ft | 251 kts | 226° |
| 2026-05-06 07:46 | 10.49405 | 78.44725 | 13811 ft | 251 kts | 226° |
| 2026-05-06 07:47 | 10.48162 | 78.43466 | 13808 ft | 251 kts | 225° |
| 2026-05-06 07:47 | 10.46924 | 78.42211 | 13812 ft | 251 kts | 226° |
| 2026-05-06 07:47 | 10.45685 | 78.40958 | 13810 ft | 251 kts | 226° |
| 2026-05-06 07:47 | 10.44446 | 78.39702 | 13816 ft | 252 kts | 226° |
| 2026-05-06 07:48 | 10.43222 | 78.38461 | 13810 ft | 251 kts | 225° |
| 2026-05-06 07:48 | 10.41977 | 78.37203 | 13812 ft | 251 kts | 225° |
| 2026-05-06 07:48 | 10.40737 | 78.35948 | 13812 ft | 251 kts | 226° |
| 2026-05-06 07:48 | 10.39496 | 78.34697 | 13810 ft | 251 kts | 226° |
| 2026-05-06 07:49 | 10.38259 | 78.33444 | 13811 ft | 251 kts | 225° |
| 2026-05-06 07:49 | 10.37024 | 78.32191 | 13814 ft | 251 kts | 226° |
| 2026-05-06 07:49 | 10.35786 | 78.30941 | 13816 ft | 251 kts | 226° |
| 2026-05-06 07:49 | 10.34549 | 78.29692 | 13809 ft | 250 kts | 225° |
| 2026-05-06 07:50 | 10.33331 | 78.28461 | 13814 ft | 250 kts | 226° |
| 2026-05-06 07:50 | 10.32095 | 78.27208 | 13815 ft | 250 kts | 226° |
| 2026-05-06 07:50 | 10.30867 | 78.25966 | 13820 ft | 250 kts | 226° |
| 2026-05-06 07:50 | 10.29631 | 78.24716 | 13809 ft | 250 kts | 225° |
| 2026-05-06 07:51 | 10.28398 | 78.23473 | 13812 ft | 249 kts | 226° |
| 2026-05-06 07:51 | 10.27168 | 78.22230 | 13817 ft | 249 kts | 226° |
| 2026-05-06 07:51 | 10.25953 | 78.20998 | 13817 ft | 249 kts | 226° |
| 2026-05-06 07:51 | 10.24719 | 78.19752 | 13814 ft | 250 kts | 225° |
| 2026-05-06 07:52 | 10.23488 | 78.18512 | 13811 ft | 250 kts | 226° |
| 2026-05-06 07:52 | 10.22260 | 78.17268 | 13811 ft | 250 kts | 226° |
| 2026-05-06 07:52 | 10.21028 | 78.16023 | 13812 ft | 250 kts | 226° |
| 2026-05-06 07:52 | 10.19798 | 78.14783 | 13816 ft | 250 kts | 225° |
| 2026-05-06 07:53 | 10.18563 | 78.13536 | 13816 ft | 250 kts | 225° |
| 2026-05-06 07:53 | 10.17327 | 78.12289 | 13825 ft | 251 kts | 225° |
| 2026-05-06 07:53 | 10.16087 | 78.11031 | 13810 ft | 253 kts | 225° |
| 2026-05-06 07:53 | 10.14839 | 78.09774 | 13814 ft | 253 kts | 225° |
| 2026-05-06 07:54 | 10.13591 | 78.08517 | 13804 ft | 253 kts | 225° |
| 2026-05-06 07:54 | 10.12342 | 78.07259 | 13805 ft | 253 kts | 225° |
| 2026-05-06 07:54 | 10.11096 | 78.06001 | 13807 ft | 252 kts | 225° |
| 2026-05-06 07:54 | 10.09853 | 78.04746 | 13790 ft | 252 kts | 225° |
| 2026-05-06 07:55 | 10.08583 | 78.03464 | 13510 ft | 262 kts | 225° |
| 2026-05-06 07:55 | 10.07288 | 78.02157 | 13213 ft | 263 kts | 225° |
| 2026-05-06 07:55 | 10.05985 | 78.00845 | 12909 ft | 264 kts | 225° |
| 2026-05-06 07:55 | 10.04676 | 77.99526 | 12611 ft | 266 kts | 225° |
| 2026-05-06 07:56 | 10.03363 | 77.98203 | 12313 ft | 267 kts | 225° |
| 2026-05-06 07:56 | 10.02046 | 77.96874 | 12022 ft | 268 kts | 225° |
| 2026-05-06 07:56 | 10.00723 | 77.95539 | 11732 ft | 269 kts | 225° |
| 2026-05-06 07:56 | 9.99395 | 77.94200 | 11441 ft | 270 kts | 225° |
| 2026-05-06 07:57 | 9.98060 | 77.92855 | 11158 ft | 271 kts | 225° |
| 2026-05-06 07:57 | 9.96726 | 77.91511 | 10875 ft | 271 kts | 225° |
| 2026-05-06 07:57 | 9.95384 | 77.90162 | 10595 ft | 272 kts | 225° |
| 2026-05-06 07:57 | 9.93899 | 77.89012 | 10313 ft | 270 kts | 202° |
| 2026-05-06 07:58 | 9.92088 | 77.88577 | 10040 ft | 269 kts | 186° |
| 2026-05-06 07:58 | 9.90211 | 77.88531 | 9662 ft | 269 kts | 176° |
| 2026-05-06 07:58 | 9.88326 | 77.88698 | 8979 ft | 276 kts | 172° |
| 2026-05-06 07:58 | 9.86481 | 77.88898 | 8248 ft | 264 kts | 173° |
| 2026-05-06 07:59 | 9.84668 | 77.89091 | 7513 ft | 250 kts | 172° |
| 2026-05-06 07:59 | 9.83104 | 77.89635 | 6805 ft | 234 kts | 141° |
| 2026-05-06 07:59 | 9.82180 | 77.90912 | 6103 ft | 223 kts | 105° |
| 2026-05-06 07:59 | 9.82078 | 77.92407 | 5399 ft | 206 kts | 85° |
| 2026-05-06 08:00 | 9.82215 | 77.93824 | 4720 ft | 198 kts | 83° |
| 2026-05-06 08:00 | 9.82374 | 77.95179 | 4065 ft | 193 kts | 82° |
| 2026-05-06 08:00 | 9.82534 | 77.96518 | 3418 ft | 190 kts | 83° |
| 2026-05-06 08:00 | 9.82621 | 77.97409 | 2959 ft | 188 kts | 84° |
| 2026-05-06 08:01 | 9.82726 | 77.98718 | 2332 ft | 185 kts | 85° |
| 2026-05-06 08:01 | 9.82825 | 78.00009 | 1692 ft | 183 kts | 85° |
| 2026-05-06 08:01 | 9.82923 | 78.01322 | 1170 ft | 184 kts | 86° |
| 2026-05-06 08:01 | 9.82951 | 78.01732 | 1148 ft | 171 kts | 87° |
| 2026-05-06 08:02 | 9.83002 | 78.02506 | 1089 ft | 134 kts | 88° |
| 2026-05-06 08:02 | 9.83056 | 78.03335 | 1091 ft | 107 kts | 86° |
| 2026-05-06 08:02 | 9.83128 | 78.04065 | 948 ft | 105 kts | 83° |
| 2026-05-06 08:02 | 9.83194 | 78.04783 | 804 ft | 100 kts | 85° |
| 2026-05-06 08:03 | 9.83277 | 78.05477 | 679 ft | 100 kts | 81° |
| 2026-05-06 08:03 | 9.83352 | 78.06019 | 699 ft | 98 kts | 84° |
| 2026-05-06 08:03 | 9.83368 | 78.06207 | 716 ft | 96 kts | 87° |
| 2026-05-06 08:03 | 9.83361 | 78.06887 | 676 ft | 99 kts | 95° |
| 2026-05-06 08:04 | 9.83361 | 78.07610 | 596 ft | 105 kts | 87° |
| 2026-05-06 08:04 | 9.83405 | 78.08350 | 483 ft | 104 kts | 86° |
| 2026-05-06 08:04 | 9.83451 | 78.09026 | 438 ft | 85 kts | 88° |
| 2026-05-06 08:04 | 9.83488 | 78.09435 | 439 ft | 47 kts | 97° |
| 2026-05-06 08:05 | 9.83471 | 78.09699 | 440 ft | 6 kts | 94° |
| 2026-05-06 08:05 | 9.83474 | 78.09708 | 440 ft | 0 kts | 51° |
| 2026-05-06 08:05 | 9.83513 | 78.09662 | 441 ft | 20 kts | 269° |
| 2026-05-06 08:05 | 9.83491 | 78.09526 | 431 ft | 20 kts | 263° |
| 2026-05-06 08:06 | 9.83474 | 78.09387 | 436 ft | 20 kts | 262° |
| 2026-05-06 08:06 | 9.83459 | 78.09246 | 422 ft | 20 kts | 265° |
| 2026-05-06 08:06 | 9.83447 | 78.09104 | 436 ft | 20 kts | 265° |
| 2026-05-06 08:06 | 9.83486 | 78.09058 | 431 ft | 5 kts | 33° |
| 2026-05-06 08:07 | 9.83513 | 78.09068 | 437 ft | 4 kts | 13° |
| 2026-05-06 08:07 | 9.83548 | 78.09076 | 430 ft | 11 kts | 13° |
| 2026-05-06 08:07 | 9.83620 | 78.09063 | 438 ft | 1 kts | 341° |
| 2026-05-06 08:07 | 9.83645 | 78.09062 | 438 ft | 5 kts | 355° |
| 2026-05-06 08:08 | 9.83653 | 78.09061 | 438 ft | 0 kts | 355° |